Time;durP1;ratioP1;P1;durP2;ratioP2;P2;SDS_P1;SDS_P2;PMS_P1;PMS_P2;Temp;Humidity;BMP_temperature;BMP_pressure;BME280_temperature;BME280_humidity;BME280_pressure;Samples;Min_cycle;Max_cycle;Signal;HPM_P1;HPM_P2
2022/08/07 00:00:58;;;;;;;1.90;1.80;;;;;;;17.27;68.32;98316.69;7615315;23;20212;-68
2022/08/07 00:04:13;;;;;;;2.47;2.10;;;;;;;17.25;68.43;98306.19;7616762;23;20728;-68
2022/08/07 00:07:17;;;;;;;2.13;2.00;;;;;;;17.16;68.80;98306.25;7614993;23;20676;-68
2022/08/07 00:10:22;;;;;;;3.77;2.27;;;;;;;17.16;68.45;98306.25;7616505;23;20208;-68
2022/08/07 00:13:30;;;;;;;3.03;2.10;;;;;;;17.14;69.06;98308.22;7617512;23;20217;-68
2022/08/07 00:16:34;;;;;;;2.37;2.17;;;;;;;17.07;69.55;98305.28;7590987;23;20209;-68
2022/08/07 00:19:36;;;;;;;2.40;2.10;;;;;;;17.02;69.32;98306.72;7616193;23;20549;-68
2022/08/07 00:22:58;;;;;;;3.27;2.20;;;;;;;17.00;69.20;98306.03;7616216;23;20224;-68
2022/08/07 00:26:02;;;;;;;2.50;2.30;;;;;;;16.98;69.38;98301.69;7616041;23;20692;-68
2022/08/07 00:29:27;;;;;;;2.47;2.10;;;;;;;16.92;69.12;98309.44;7568955;23;20216;-68
2022/08/07 00:32:32;;;;;;;2.53;2.30;;;;;;;16.88;69.24;98311.53;7589904;23;20209;-68
2022/08/07 00:35:35;;;;;;;3.03;2.00;;;;;;;16.84;69.37;98318.19;7590754;23;20702;-68
2022/08/07 00:38:38;;;;;;;2.33;2.13;;;;;;;16.86;69.04;98315.38;7589310;23;20217;-68
2022/08/07 00:41:51;;;;;;;2.57;2.37;;;;;;;16.85;69.12;98314.53;7591134;23;20212;-67
2022/08/07 00:45:03;;;;;;;2.50;2.20;;;;;;;16.86;68.85;98318.03;7614608;23;20197;-68
2022/08/07 00:48:09;;;;;;;2.13;2.00;;;;;;;16.84;68.91;98312.84;7615664;23;20284;-69
2022/08/07 00:51:13;;;;;;;2.47;1.90;;;;;;;16.82;69.39;98322.81;7613190;23;20191;-68
2022/08/07 00:54:15;;;;;;;2.73;1.97;;;;;;;16.79;68.85;98322.25;7614152;23;20278;-69
2022/08/07 00:57:25;;;;;;;2.30;2.10;;;;;;;16.73;69.21;98315.69;7590160;23;20266;-68
2022/08/07 01:05:05;;;;;;;3.30;2.20;;;;;;;16.68;69.05;98312.59;7615467;23;20236;-68
2022/08/07 01:08:21;;;;;;;2.20;2.00;;;;;;;16.69;68.92;98311.63;7589629;23;20562;-68
2022/08/07 01:11:30;;;;;;;3.13;2.23;;;;;;;16.68;68.72;98306.44;7615432;23;20728;-68
2022/08/07 01:14:52;;;;;;;2.33;2.00;;;;;;;16.65;68.37;98304.94;7615842;23;20220;-67
2022/08/07 01:18:01;;;;;;;2.47;2.13;;;;;;;16.65;68.19;98296.94;7615645;23;20200;-68
2022/08/07 01:21:12;;;;;;;2.10;1.90;;;;;;;16.65;67.99;98304.94;7589924;23;20196;-68
2022/08/07 01:24:27;;;;;;;2.20;2.03;;;;;;;16.58;68.40;98299.28;7590334;23;20235;-68
2022/08/07 01:27:33;;;;;;;3.77;2.07;;;;;;;16.55;68.46;98310.25;7614948;23;20217;-68
2022/08/07 01:30:38;;;;;;;2.30;2.10;;;;;;;16.54;68.35;98303.25;7589113;23;20665;-67
2022/08/07 01:33:45;;;;;;;2.13;1.97;;;;;;;16.55;68.20;98307.59;7589604;23;20208;-68
2022/08/07 01:37:03;;;;;;;3.27;2.20;;;;;;;16.56;67.81;98313.75;7589193;23;20212;-69
2022/08/07 01:40:13;;;;;;;3.20;2.00;;;;;;;16.50;67.78;98306.34;7615489;23;20209;-67
2022/08/07 01:43:28;;;;;;;2.07;1.90;;;;;;;16.53;67.50;98306.06;7589381;23;20220;-68
2022/08/07 01:46:41;;;;;;;1.97;1.77;;;;;;;16.55;67.48;98307.59;7567409;23;20708;-68
2022/08/07 01:49:45;;;;;;;2.20;2.00;;;;;;;16.53;67.90;98304.22;7588895;23;20685;-68
2022/08/07 01:52:56;;;;;;;3.47;1.83;;;;;;;16.47;67.48;98306.66;7588306;23;20213;-69
2022/08/07 01:56:04;;;;;;;3.40;1.80;;;;;;;16.46;67.40;98305.81;7590045;23;20236;-68
2022/08/07 01:59:10;;;;;;;2.20;2.00;;;;;;;16.45;67.48;98303.28;7589383;23;20216;-68
2022/08/07 02:02:22;;;;;;;2.17;1.67;;;;;;;16.41;67.36;98310.72;7588156;23;20231;-68
2022/08/07 02:05:53;;;;;;;2.27;1.90;;;;;;;16.44;67.10;98291.78;7614226;23;20477;-69
2022/08/07 02:09:10;;;;;;;5.20;2.00;;;;;;;16.43;66.76;98294.59;7569837;23;20272;-68
2022/08/07 02:12:37;;;;;;;2.30;1.67;;;;;;;16.41;66.24;98312.53;7589581;23;20227;-68
2022/08/07 02:15:45;;;;;;;1.80;1.70;;;;;;;16.40;66.63;98302.84;7616383;23;20212;-69
2022/08/07 02:18:55;;;;;;;1.97;1.87;;;;;;;16.42;66.45;98303.56;7591298;23;20219;-68
2022/08/07 02:22:00;;;;;;;2.03;1.57;;;;;;;16.43;66.46;98302.56;7614303;23;20220;-68
2022/08/07 02:25:06;;;;;;;1.97;1.87;;;;;;;16.41;66.38;98299.22;7587946;23;20555;-68
2022/08/07 02:28:30;;;;;;;2.47;1.87;;;;;;;16.39;66.28;98302.00;7615327;23;20224;-69
2022/08/07 02:31:37;;;;;;;3.57;2.07;;;;;;;16.37;66.66;98295.97;7589759;23;20212;-68
2022/08/07 02:34:41;;;;;;;2.50;1.83;;;;;;;16.32;66.56;98292.94;7588742;23;20712;-68
2022/08/07 02:37:56;;;;;;;1.80;1.60;;;;;;;16.28;66.58;98298.66;7589220;23;20650;-68
2022/08/07 02:41:01;;;;;;;3.17;2.23;;;;;;;16.22;66.33;98302.75;7614348;23;20212;-68
2022/08/07 02:44:08;;;;;;;1.90;1.80;;;;;;;16.22;66.21;98295.63;7614355;23;20529;-68
2022/08/07 02:47:14;;;;;;;2.47;1.90;;;;;;;16.24;66.46;98290.16;7588179;23;20282;-68
2022/08/07 02:50:24;;;;;;;3.67;2.03;;;;;;;16.23;66.49;98296.47;7567132;23;20218;-68
2022/08/07 02:53:34;;;;;;;2.20;2.00;;;;;;;16.16;65.72;98277.56;7614393;23;20271;-68
2022/08/07 02:56:45;;;;;;;3.40;1.70;;;;;;;16.15;65.63;98278.53;7588651;23;20355;-68
2022/08/07 02:59:49;;;;;;;1.73;1.60;;;;;;;16.17;65.86;98273.88;7588635;23;20537;-68
2022/08/07 03:03:06;;;;;;;5.53;1.90;;;;;;;16.16;66.14;98269.56;7588954;23;20595;-68
2022/08/07 03:06:20;;;;;;;1.60;1.50;;;;;;;16.13;66.03;98261.84;7591212;23;20177;-68
2022/08/07 03:09:36;;;;;;;2.23;1.70;;;;;;;16.11;65.92;98255.81;7591186;23;20612;-69
2022/08/07 03:12:47;;;;;;;2.07;1.70;;;;;;;16.12;65.60;98262.00;7591965;23;20217;-69
2022/08/07 03:15:54;;;;;;;2.67;1.83;;;;;;;16.13;65.16;98271.66;7591187;23;20676;-69
2022/08/07 03:19:03;;;;;;;2.13;1.93;;;;;;;16.11;64.88;98258.50;7616995;23;20721;-69
2022/08/07 03:22:07;;;;;;;2.20;2.00;;;;;;;16.10;64.48;98262.13;7617064;23;20306;-68
2022/08/07 03:25:22;;;;;;;2.30;1.63;;;;;;;16.08;64.75;98257.94;7616670;23;20213;-69
2022/08/07 03:28:30;;;;;;;2.77;2.00;;;;;;;16.06;64.84;98247.44;7568605;23;20216;-69
2022/08/07 03:31:42;;;;;;;3.90;1.90;;;;;;;16.06;64.45;98247.44;7591239;23;20315;-69
2022/08/07 03:34:52;;;;;;;2.50;1.83;;;;;;;16.07;64.42;98242.97;7591727;23;20224;-69
2022/08/07 03:38:16;;;;;;;1.97;1.83;;;;;;;16.05;64.24;98247.59;7590791;23;20220;-69
2022/08/07 03:41:23;;;;;;;2.33;1.70;;;;;;;16.09;64.36;98247.13;7590795;23;20623;-69
2022/08/07 03:44:46;;;;;;;2.93;1.90;;;;;;;16.07;64.45;98248.28;7616535;23;20213;-69
2022/08/07 03:47:59;;;;;;;3.43;1.90;;;;;;;16.05;64.40;98248.44;7591415;23;20421;-69
2022/08/07 03:51:03;;;;;;;2.30;2.00;;;;;;;16.04;64.52;98254.72;7615810;23;20207;-69
2022/08/07 03:54:14;;;;;;;2.47;2.13;;;;;;;16.04;64.25;98249.41;7578532;23;20280;-69
2022/08/07 03:57:40;;;;;;;2.60;1.90;;;;;;;16.05;64.22;98256.41;7579317;23;20224;-69
2022/08/07 04:01:09;;;;;;;3.00;2.03;;;;;;;16.01;64.98;98256.81;7584336;23;20224;-68
2022/08/07 04:04:17;;;;;;;3.43;2.07;;;;;;;15.96;65.80;98254.59;7577955;23;20209;-69
2022/08/07 04:07:24;;;;;;;1.93;1.70;;;;;;;15.97;65.27;98260.78;7580760;23;20213;-69
2022/08/07 04:10:39;;;;;;;3.03;2.00;;;;;;;15.93;65.84;98260.22;7577146;23;20344;-69
2022/08/07 04:13:55;;;;;;;2.00;1.70;;;;;;;15.91;65.64;98261.31;7579603;23;20209;-68
2022/08/07 04:17:19;;;;;;;2.00;1.80;;;;;;;15.94;66.15;98266.38;7581151;23;20288;-69
2022/08/07 04:20:29;;;;;;;2.03;1.83;;;;;;;15.86;65.93;98264.44;7577710;23;20209;-68
2022/08/07 04:23:33;;;;;;;2.00;1.80;;;;;;;15.76;66.53;98266.25;7578694;23;20678;-69
2022/08/07 04:26:56;;;;;;;1.90;1.80;;;;;;;15.69;67.10;98273.94;7577906;23;20724;-68
2022/08/07 04:29:59;;;;;;;3.70;2.13;;;;;;;15.68;66.78;98274.09;7553725;23;20704;-68
2022/08/07 04:33:23;;;;;;;2.27;2.00;;;;;;;15.65;66.87;98261.09;7583806;23;20506;-68
2022/08/07 04:36:26;;;;;;;2.97;2.03;;;;;;;15.65;68.32;98261.09;7577932;23;20222;-68
2022/08/07 04:39:31;;;;;;;1.80;1.70;;;;;;;15.64;66.79;98268.22;7554367;23;20213;-69
2022/08/07 04:42:37;;;;;;;2.47;1.80;;;;;;;15.65;67.03;98266.41;7577646;23;20211;-68
2022/08/07 04:46:13;;;;;;;4.27;1.70;;;;;;;15.69;67.01;98265.13;7554649;23;20213;-68
2022/08/07 04:50:08;;;;;;;1.73;1.63;;;;;;;15.67;67.43;98269.78;7585961;23;20213;-68
2022/08/07 04:53:26;;;;;;;2.00;1.90;;;;;;;15.67;66.35;98259.13;7480504;23;20258;-69
2022/08/07 04:56:44;;;;;;;2.60;1.87;;;;;;;15.72;65.86;98264.84;7512496;23;20262;-68
2022/08/07 05:00:15;;;;;;;2.77;1.70;;;;;;;15.82;65.76;98271.00;7557513;23;20202;-69
2022/08/07 05:03:46;;;;;;;2.03;1.70;;;;;;;15.91;65.50;98269.31;7577444;23;20223;-68
2022/08/07 05:07:32;;;;;;;3.70;2.13;;;;;;;16.02;65.20;98280.66;7578522;23;20216;-69
2022/08/07 05:11:14;;;;;;;3.10;1.90;;;;;;;16.09;64.75;98283.56;7577165;23;20685;-68
2022/08/07 05:15:15;;;;;;;2.60;1.70;;;;;;;16.13;64.08;98283.16;7577366;23;20209;-69
2022/08/07 05:18:33;;;;;;;2.43;1.97;;;;;;;16.15;64.11;98277.69;7478743;23;20694;-69
2022/08/07 05:21:37;;;;;;;2.10;1.67;;;;;;;16.16;63.73;98268.72;7479424;23;20215;-68
2022/08/07 05:25:00;;;;;;;2.20;1.70;;;;;;;16.21;63.75;98277.09;7502854;23;20215;-68
2022/08/07 05:28:05;;;;;;;2.00;1.80;;;;;;;16.27;63.92;98278.38;7479115;23;20228;-69
2022/08/07 05:31:32;;;;;;;2.43;2.13;;;;;;;16.23;62.59;98281.31;7478932;23;20218;-69
2022/08/07 05:34:40;;;;;;;2.20;1.73;;;;;;;16.23;62.67;98277.81;7478664;23;20306;-69
2022/08/07 05:37:44;;;;;;;3.40;1.80;;;;;;;16.25;63.01;98286.50;7480128;23;20611;-68
2022/08/07 05:40:46;;;;;;;2.30;1.70;;;;;;;16.30;63.35;98280.72;7480848;23;20710;-68
2022/08/07 05:43:57;;;;;;;3.17;1.70;;;;;;;16.41;63.04;98285.88;7480242;23;20211;-69
2022/08/07 05:47:18;;;;;;;3.03;1.87;;;;;;;16.43;63.16;98281.25;7501860;23;20517;-68
2022/08/07 05:50:40;;;;;;;2.90;1.80;;;;;;;16.50;62.41;98282.34;7490562;23;20292;-69
2022/08/07 05:53:46;;;;;;;2.60;1.93;;;;;;;16.51;61.57;98289.38;7575898;23;20612;-69
2022/08/07 05:57:09;;;;;;;2.13;1.70;;;;;;;16.65;61.60;98293.44;7578260;23;20221;-68
2022/08/07 06:00:14;;;;;;;3.00;1.63;;;;;;;16.77;60.89;98290.41;7577334;23;20177;-69
2022/08/07 06:03:23;;;;;;;3.50;1.77;;;;;;;16.88;60.60;98297.38;7577895;23;20567;-69
2022/08/07 06:06:46;;;;;;;2.83;1.60;;;;;;;17.08;60.22;98301.63;7577410;23;20210;-68
2022/08/07 06:10:05;;;;;;;2.33;1.47;;;;;;;17.24;59.93;98291.16;7577787;23;20206;-69
2022/08/07 06:13:17;;;;;;;2.47;1.70;;;;;;;17.49;59.42;98299.41;7585880;23;20732;-69
2022/08/07 06:16:44;;;;;;;2.43;1.87;;;;;;;17.69;58.70;98290.28;7578380;23;20217;-68
2022/08/07 06:19:59;;;;;;;2.00;1.50;;;;;;;17.88;57.88;98294.63;7578433;23;20288;-69
2022/08/07 06:23:08;;;;;;;2.43;1.50;;;;;;;18.01;57.25;98287.91;7576704;23;20213;-68
2022/08/07 06:26:30;;;;;;;2.37;1.53;;;;;;;18.27;57.07;98287.91;7576472;23;20224;-69
2022/08/07 06:29:33;;;;;;;2.13;1.40;;;;;;;18.56;56.60;98281.44;7576451;23;20220;-68
2022/08/07 06:32:40;;;;;;;2.30;1.40;;;;;;;18.69;56.26;98279.19;7576505;23;20213;-69
2022/08/07 06:35:43;;;;;;;1.67;1.50;;;;;;;18.61;56.21;98282.66;7580840;23;20224;-69
2022/08/07 06:39:05;;;;;;;2.40;1.80;;;;;;;18.62;56.28;98279.00;7578918;23;20535;-69
2022/08/07 06:42:36;;;;;;;2.57;1.67;;;;;;;18.43;55.68;98276.53;7579390;23;20588;-69
2022/08/07 06:46:02;;;;;;;1.83;1.67;;;;;;;18.31;56.21;98291.13;7573528;23;20209;-69
2022/08/07 06:49:08;;;;;;;2.33;1.50;;;;;;;18.31;56.79;98288.47;7580869;23;20299;-68
2022/08/07 06:52:14;;;;;;;3.40;2.00;;;;;;;18.25;56.34;98289.94;7579721;23;20213;-69
2022/08/07 06:55:34;;;;;;;2.30;1.70;;;;;;;18.24;56.33;98284.75;7581343;23;20217;-68
2022/08/07 06:58:59;;;;;;;2.80;1.77;;;;;;;18.26;56.86;98291.63;7579382;23;20264;-69
2022/08/07 07:02:26;;;;;;;5.30;1.63;;;;;;;18.30;56.04;98292.97;7560046;23;20687;-68
2022/08/07 07:05:48;;;;;;;2.53;1.50;;;;;;;18.49;55.66;98285.72;7579103;23;20209;-68
2022/08/07 07:09:29;;;;;;;1.80;1.50;;;;;;;18.53;55.42;98281.75;7581250;23;20685;-68
2022/08/07 07:12:52;;;;;;;4.23;1.50;;;;;;;18.65;55.28;98283.19;7582856;23;20225;-68
2022/08/07 07:16:00;;;;;;;2.37;1.67;;;;;;;18.73;54.88;98285.91;7579604;23;20217;-69
2022/08/07 07:19:05;;;;;;;2.33;1.30;;;;;;;18.87;54.66;98287.13;7581042;23;20265;-69
2022/08/07 07:22:28;;;;;;;2.70;1.60;;;;;;;18.78;54.27;98289.75;7580576;23;20506;-68
2022/08/07 07:25:43;;;;;;;2.17;1.70;;;;;;;18.88;54.42;98286.13;7582165;23;20217;-68
2022/08/07 07:29:12;;;;;;;2.30;1.70;;;;;;;19.01;54.22;98290.03;7580072;23;20596;-69
2022/08/07 07:32:39;;;;;;;2.53;1.90;;;;;;;19.10;53.90;98291.75;7580682;23;20288;-69
2022/08/07 07:35:47;;;;;;;2.60;1.50;;;;;;;19.21;53.64;98287.09;7581232;23;20232;-69
2022/08/07 07:39:08;;;;;;;1.70;1.60;;;;;;;19.41;53.17;98283.13;7579549;23;20193;-69
2022/08/07 07:42:14;;;;;;;2.83;1.80;;;;;;;19.58;52.41;98276.00;7555744;23;20613;-69
2022/08/07 07:45:26;;;;;;;3.00;1.53;;;;;;;19.95;51.26;98280.91;7580338;23;20650;-67
2022/08/07 07:48:51;;;;;;;4.43;1.50;;;;;;;20.10;51.62;98276.53;7581263;23;20559;-68
2022/08/07 07:52:12;;;;;;;3.23;2.00;;;;;;;20.31;51.00;98274.16;7580146;23;20593;-68
2022/08/07 07:55:18;;;;;;;2.83;2.03;;;;;;;20.36;49.47;98277.22;7609234;23;20221;-68
2022/08/07 07:58:21;;;;;;;3.20;2.07;;;;;;;20.45;49.62;98268.16;7590422;23;20297;-68
2022/08/07 08:01:24;;;;;;;2.40;1.63;;;;;;;20.47;49.96;98271.47;7616306;23;20216;-69
2022/08/07 08:05:05;;;;;;;1.90;1.70;;;;;;;20.44;50.48;98263.78;7504070;23;20223;-69
2022/08/07 08:08:17;;;;;;;2.10;1.47;;;;;;;20.59;49.87;98270.09;7481028;23;20575;-68
2022/08/07 08:11:37;;;;;;;3.50;1.70;;;;;;;20.61;49.19;98265.41;7480651;23;20280;-68
2022/08/07 08:15:00;;;;;;;1.93;1.60;;;;;;;20.45;50.34;98268.16;7504107;23;20218;-68
2022/08/07 08:18:12;;;;;;;3.23;1.40;;;;;;;20.61;50.50;98261.91;7504359;23;20203;-68
2022/08/07 08:28:44;;;;;;;1.77;1.67;;;;;;;20.20;50.53;98263.78;7616214;23;20216;-68
2022/08/07 08:31:48;;;;;;;2.43;1.40;;;;;;;20.13;51.76;98266.31;7590497;23;20219;-68
2022/08/07 08:35:16;;;;;;;2.00;1.70;;;;;;;20.13;51.49;98271.69;7607858;23;20660;-68
2022/08/07 08:38:22;;;;;;;4.10;1.50;;;;;;;20.04;51.48;98266.50;7581877;23;20222;-68
2022/08/07 08:41:48;;;;;;;3.33;1.60;;;;;;;20.15;51.41;98268.84;7607359;23;20626;-68
2022/08/07 08:45:17;;;;;;;2.87;1.70;;;;;;;20.09;51.62;98264.13;7608209;23;20216;-68
2022/08/07 08:48:41;;;;;;;3.90;1.60;;;;;;;20.15;51.37;98263.47;7607723;23;20780;-69
2022/08/07 08:51:56;;;;;;;2.30;1.70;;;;;;;20.22;50.88;98267.13;7582599;23;20217;-68
2022/08/07 08:55:24;;;;;;;1.60;1.50;;;;;;;20.55;50.62;98267.97;7581137;23;20371;-68
2022/08/07 08:58:58;;;;;;;2.30;1.40;;;;;;;21.08;50.24;98267.25;7609131;23;20217;-68
2022/08/07 09:02:29;;;;;;;2.23;1.80;;;;;;;21.32;47.83;98274.38;7575276;23;20828;-68
2022/08/07 09:05:58;;;;;;;2.00;1.57;;;;;;;21.60;49.30;98263.97;7601430;23;20697;-68
2022/08/07 09:09:08;;;;;;;2.40;1.30;;;;;;;21.86;47.39;98255.56;7604750;23;20220;-69
2022/08/07 09:12:30;;;;;;;1.93;1.70;;;;;;;21.69;48.12;98268.25;7582361;23;20531;-69
2022/08/07 09:16:02;;;;;;;2.30;1.40;;;;;;;21.84;47.41;98254.88;7606991;23;20213;-69
2022/08/07 09:20:20;;;;;;;1.93;1.47;;;;;;;21.68;47.33;98264.72;7590681;23;20209;-68
2022/08/07 09:23:48;;;;;;;2.97;1.90;;;;;;;21.62;48.04;98268.16;7602751;23;20220;-69
2022/08/07 09:28:03;;;;;;;1.57;1.27;;;;;;;21.67;47.80;98260.38;7612289;23;20266;-69
2022/08/07 09:31:26;;;;;;;2.73;2.00;;;;;;;21.51;48.54;98255.13;7503234;23;20603;-69
2022/08/07 09:34:41;;;;;;;2.27;1.40;;;;;;;21.72;48.28;98249.09;7502735;23;20225;-69
2022/08/07 09:38:10;;;;;;;2.30;1.60;;;;;;;21.87;48.93;98249.97;7504284;23;20217;-69
2022/08/07 09:41:49;;;;;;;2.27;1.83;;;;;;;21.97;47.40;98247.88;7504791;23;20627;-69
2022/08/07 09:45:12;;;;;;;2.70;1.67;;;;;;;22.93;46.08;98244.41;7499686;23;20199;-68
2022/08/07 09:48:57;;;;;;;3.13;1.90;;;;;;;22.94;45.81;98242.56;7503061;23;20219;-69
2022/08/07 09:52:45;;;;;;;2.40;1.63;;;;;;;22.55;45.96;98242.81;7503809;23;20214;-69
2022/08/07 09:56:07;;;;;;;1.57;1.47;;;;;;;22.83;46.44;98233.09;7468042;23;20223;-69
2022/08/07 09:59:57;;;;;;;1.97;1.40;;;;;;;22.99;46.10;98227.50;7460123;23;20227;-68
2022/08/07 10:03:30;;;;;;;2.30;1.60;;;;;;;23.01;45.48;98230.84;7461847;23;20611;-69
2022/08/07 10:07:29;;;;;;;1.73;1.43;;;;;;;23.27;45.14;98232.16;7516067;23;20301;-68
2022/08/07 10:11:01;;;;;;;3.60;1.80;;;;;;;23.59;43.91;98222.81;7534565;23;20595;-69
2022/08/07 10:14:43;;;;;;;2.40;1.70;;;;;;;23.91;44.07;98216.88;7534800;23;20550;-69
2022/08/07 10:18:17;;;;;;;1.90;1.70;;;;;;;24.33;42.65;98205.22;7541856;23;20221;-69
2022/08/07 10:21:40;;;;;;;1.47;1.30;;;;;;;25.48;41.99;98205.31;7564560;23;20202;-70
2022/08/07 10:25:56;;;;;;;4.97;1.80;;;;;;;27.00;37.99;98197.94;7542668;23;20670;-69
2022/08/07 10:29:25;;;;;;;3.63;1.45;;;;;;;27.77;37.25;98201.50;7542895;23;20257;-69
2022/08/07 10:32:31;;;;;;;2.45;1.45;;;;;;;27.16;37.38;98188.50;7542827;23;20221;-70
2022/08/07 10:36:13;;;;;;;2.08;1.48;;;;;;;26.79;38.16;98195.50;7542282;23;20631;-69
2022/08/07 10:39:50;;;;;;;2.15;1.60;;;;;;;26.59;38.06;98184.72;7542461;23;20580;-69
2022/08/07 10:43:28;;;;;;;1.88;1.48;;;;;;;26.95;37.79;98176.06;7543539;23;20666;-68
2022/08/07 10:46:45;;;;;;;1.48;1.30;;;;;;;27.84;36.62;98173.28;7543156;23;20752;-69
2022/08/07 10:49:53;;;;;;;4.05;1.80;;;;;;;27.17;36.65;98182.84;7516909;23;20221;-70
2022/08/07 10:53:02;;;;;;;4.32;1.70;;;;;;;26.75;37.96;98173.41;7547258;23;20353;-70
2022/08/07 10:56:39;;;;;;;2.03;1.52;;;;;;;26.34;38.47;98167.53;7588741;23;20223;-69
2022/08/07 11:00:06;;;;;;;2.20;1.25;;;;;;;25.60;39.77;98165.88;7615036;23;20668;-69
2022/08/07 11:03:31;;;;;;;1.38;1.10;;;;;;;25.59;39.87;98157.91;7612853;23;20208;-69
2022/08/07 11:06:59;;;;;;;2.72;1.40;;;;;;;25.30;40.49;98172.63;7615605;23;20292;-69
2022/08/07 11:10:12;;;;;;;2.15;1.50;;;;;;;24.92;41.29;98162.34;7619242;23;20310;-69
2022/08/07 11:13:24;;;;;;;1.85;1.30;;;;;;;25.45;40.38;98165.19;7564496;23;20209;-69
2022/08/07 11:16:55;;;;;;;3.53;1.60;;;;;;;25.59;40.50;98153.34;7614422;23;20212;-70
2022/08/07 11:20:13;;;;;;;2.60;1.42;;;;;;;25.35;40.36;98152.06;7615390;23;20213;-69
2022/08/07 11:23:36;;;;;;;1.50;1.17;;;;;;;25.11;40.89;98154.50;7613768;23;20213;-69
2022/08/07 11:26:52;;;;;;;1.67;1.48;;;;;;;25.11;40.69;98147.25;7616260;23;20209;-68
2022/08/07 11:29:59;;;;;;;3.20;1.30;;;;;;;25.48;40.67;98147.72;7615586;23;20591;-69
2022/08/07 11:33:50;;;;;;;1.95;1.42;;;;;;;24.84;39.90;98142.78;7617935;23;20578;-71
2022/08/07 11:37:12;;;;;;;1.55;1.20;;;;;;;24.35;42.00;98142.97;7615620;23;20736;-70
2022/08/07 11:40:36;;;;;;;2.38;1.48;;;;;;;24.14;41.95;98151.94;7617723;23;20542;-69
2022/08/07 11:43:57;;;;;;;1.30;1.10;;;;;;;23.94;41.97;98145.56;7616700;23;20663;-69
2022/08/07 11:47:35;;;;;;;5.55;1.75;;;;;;;23.67;42.90;98139.13;7616310;23;20699;-69
2022/08/07 11:51:15;;;;;;;2.73;1.33;;;;;;;23.89;42.72;98130.81;7616593;23;20240;-68
2022/08/07 11:55:13;;;;;;;2.10;1.40;;;;;;;23.84;44.09;98140.53;7594664;23;20575;-69
2022/08/07 11:58:53;;;;;;;1.73;1.20;;;;;;;24.34;43.17;98127.81;7616994;23;20209;-68
2022/08/07 12:02:32;;;;;;;3.78;1.48;;;;;;;24.58;41.72;98124.59;7615534;23;20317;-68
2022/08/07 12:05:47;;;;;;;2.17;1.10;;;;;;;24.68;42.83;98116.94;7591178;23;20219;-68
2022/08/07 12:09:23;;;;;;;2.83;1.73;;;;;;;24.52;42.22;98122.69;7590425;23;20244;-68
2022/08/07 12:12:35;;;;;;;1.93;1.53;;;;;;;24.69;42.46;98118.63;7610121;23;20251;-68
2022/08/07 12:15:49;;;;;;;2.95;1.38;;;;;;;24.39;42.36;98123.47;7616616;23;20208;-68
2022/08/07 12:19:26;;;;;;;1.42;1.30;;;;;;;24.80;41.73;98112.63;7614972;23;20219;-68
2022/08/07 12:23:30;;;;;;;4.15;1.52;;;;;;;24.78;41.31;98116.56;7588408;23;20212;-68
2022/08/07 12:27:03;;;;;;;2.08;1.30;;;;;;;25.51;40.72;98110.31;7589529;23;20357;-68
2022/08/07 12:30:20;;;;;;;1.45;1.35;;;;;;;25.77;40.43;98111.34;7615930;23;20216;-68
2022/08/07 12:33:28;;;;;;;1.90;1.42;;;;;;;25.93;39.43;98108.25;7589597;23;20287;-68
2022/08/07 12:36:52;;;;;;;1.38;1.27;;;;;;;25.83;40.16;98110.53;7615342;23;20658;-68
2022/08/07 12:39:57;;;;;;;1.75;1.23;;;;;;;25.86;40.51;98102.00;7615400;23;20275;-68
2022/08/07 12:43:04;;;;;;;1.77;1.27;;;;;;;25.85;39.90;98100.34;7615904;23;20680;-68
2022/08/07 12:46:34;;;;;;;3.03;1.40;;;;;;;26.21;39.68;98108.81;7616314;23;20650;-68
2022/08/07 12:49:55;;;;;;;1.90;1.20;;;;;;;26.35;39.46;98105.03;7591257;23;20216;-69
2022/08/07 12:53:34;;;;;;;2.15;1.30;;;;;;;26.84;39.34;98100.91;7614914;23;20255;-68
2022/08/07 12:56:59;;;;;;;1.52;1.42;;;;;;;27.07;37.71;98103.06;7615895;23;20670;-68
2022/08/07 13:00:12;;;;;;;1.60;1.42;;;;;;;27.18;37.50;98099.66;7615626;23;20204;-68
2022/08/07 13:03:58;;;;;;;2.55;1.33;;;;;;;27.31;37.78;98096.06;7615486;23;20215;-68
2022/08/07 13:07:43;;;;;;;2.47;1.38;;;;;;;27.79;36.11;98096.31;7619775;23;20205;-69
2022/08/07 13:11:30;;;;;;;2.92;1.23;;;;;;;28.57;34.44;98091.94;7588948;23;20212;-68
2022/08/07 13:15:06;;;;;;;1.38;1.15;;;;;;;28.70;33.32;98088.25;7594681;23;20295;-69
2022/08/07 13:18:14;;;;;;;2.22;1.20;;;;;;;28.40;34.00;98092.78;7589247;23;20212;-68
2022/08/07 13:21:41;;;;;;;1.33;1.15;;;;;;;28.14;34.61;98093.91;7614800;23;20665;-68
2022/08/07 13:25:10;;;;;;;3.38;1.23;;;;;;;27.87;35.79;98094.13;7615725;23;20216;-69
2022/08/07 13:28:38;;;;;;;2.33;1.30;;;;;;;28.04;35.61;98093.59;7588032;23;20212;-69
2022/08/07 13:31:49;;;;;;;2.47;1.23;;;;;;;27.97;35.94;98096.34;7615781;23;20725;-69
2022/08/07 13:35:07;;;;;;;3.22;1.30;;;;;;;28.12;35.27;98079.72;7615074;23;20317;-68
2022/08/07 13:38:16;;;;;;;2.05;1.33;;;;;;;28.49;34.87;98078.69;7617410;23;20213;-68
2022/08/07 13:41:42;;;;;;;1.90;1.35;;;;;;;28.56;34.88;98078.59;7615123;23;20292;-68
2022/08/07 13:44:51;;;;;;;1.17;1.08;;;;;;;29.14;33.61;98067.19;7614915;23;20212;-68
2022/08/07 13:48:14;;;;;;;1.80;1.02;;;;;;;29.54;32.50;98067.41;7613071;23;20728;-69
2022/08/07 13:51:30;;;;;;;1.65;1.40;;;;;;;30.11;31.91;98064.94;7614594;23;20209;-69
2022/08/07 13:54:56;;;;;;;1.20;1.10;;;;;;;30.38;31.02;98058.75;7613656;23;20727;-69
2022/08/07 14:01:55;;;;;;;2.08;1.10;;;;;;;32.51;28.52;98050.66;7616162;23;20220;-68
2022/08/07 14:05:09;;;;;;;1.17;1.08;;;;;;;33.15;27.71;98048.91;7538376;23;20273;-68
2022/08/07 14:08:13;;;;;;;1.38;1.00;;;;;;;33.34;27.10;98041.22;7515354;23;20281;-69
2022/08/07 14:11:18;;;;;;;2.33;1.40;;;;;;;-144.22;100.00;60274.75;7537403;23;20221;-69
2022/08/07 14:14:30;;;;;;;2.15;0.95;;;;;;;34.76;24.18;98031.97;7538945;23;20237;-69
2022/08/07 14:17:37;;;;;;;3.72;1.13;;;;;;;34.98;24.69;98029.00;7538116;23;20568;-69
2022/08/07 14:21:17;;;;;;;3.05;1.30;;;;;;;33.84;25.56;98026.28;7537885;23;20250;-70
2022/08/07 14:24:44;;;;;;;1.63;1.00;;;;;;;33.22;25.87;98018.63;7536802;23;20219;-70
2022/08/07 14:27:50;;;;;;;1.20;1.10;;;;;;;33.97;25.36;98014.84;7515351;23;20666;-70
2022/08/07 14:31:13;;;;;;;1.02;0.93;;;;;;;34.77;24.17;98025.38;7540001;23;20213;-68
2022/08/07 14:34:21;;;;;;;1.10;1.00;;;;;;;35.09;23.12;98025.19;7541356;23;20214;-69
2022/08/07 14:37:30;;;;;;;2.28;1.17;;;;;;;35.52;23.12;98017.53;7614427;23;20288;-70
2022/08/07 14:40:43;;;;;;;1.25;1.13;;;;;;;32.39;26.73;98015.25;7614955;23;20212;-70
2022/08/07 14:43:53;;;;;;;1.98;1.17;;;;;;;30.44;29.69;98019.66;7590310;23;20208;-70
2022/08/07 14:47:16;;;;;;;3.10;1.25;;;;;;;29.99;30.00;98019.50;7613602;23;20255;-70
2022/08/07 14:50:22;;;;;;;1.38;1.17;;;;;;;30.05;29.92;98012.25;7614041;23;20271;-70
2022/08/07 14:53:45;;;;;;;1.23;1.00;;;;;;;30.21;29.54;98016.16;7614403;23;20217;-69
2022/08/07 14:57:11;;;;;;;1.95;1.10;;;;;;;28.68;31.86;98017.00;7614005;23;20317;-69
2022/08/07 15:00:29;;;;;;;2.75;1.40;;;;;;;27.85;33.54;98014.84;7590989;23;20177;-68
2022/08/07 15:03:33;;;;;;;2.13;1.00;;;;;;;27.35;34.76;98005.91;7615709;23;20232;-68
2022/08/07 15:06:53;;;;;;;1.20;1.10;;;;;;;27.09;36.10;98015.09;7617631;23;20693;-68
2022/08/07 15:09:57;;;;;;;1.27;1.00;;;;;;;26.85;36.16;98015.88;7617861;23;20213;-68
2022/08/07 15:13:18;;;;;;;1.55;1.13;;;;;;;26.53;36.85;98009.63;7589147;23;20236;-69
2022/08/07 15:16:27;;;;;;;3.03;1.23;;;;;;;26.35;36.73;98010.31;7617681;23;20303;-68
2022/08/07 15:19:36;;;;;;;1.60;1.05;;;;;;;26.47;37.00;98010.47;7616414;23;20236;-69
2022/08/07 15:23:00;;;;;;;1.38;1.23;;;;;;;26.09;37.13;98013.09;7618494;23;20300;-69
2022/08/07 15:26:32;;;;;;;1.92;1.38;;;;;;;26.14;37.42;98010.59;7618122;23;20308;-68
2022/08/07 15:29:47;;;;;;;1.27;1.02;;;;;;;25.88;37.93;98013.38;7615810;23;20669;-68
2022/08/07 15:33:19;;;;;;;2.13;1.40;;;;;;;25.95;38.13;98006.09;7616762;23;20200;-69
2022/08/07 15:36:24;;;;;;;1.55;1.00;;;;;;;25.82;38.65;97995.28;7616652;23;20216;-68
2022/08/07 15:39:53;;;;;;;1.38;0.88;;;;;;;25.45;38.92;98000.34;7616567;23;20228;-69
2022/08/07 15:43:18;;;;;;;1.15;0.98;;;;;;;25.30;39.66;98005.09;7615062;23;20275;-69
2022/08/07 15:46:42;;;;;;;3.20;1.20;;;;;;;25.09;39.76;98008.00;7590052;23;20213;-68
2022/08/07 15:50:15;;;;;;;2.65;1.30;;;;;;;24.66;40.22;98004.84;7615950;23;20223;-68
2022/08/07 15:53:49;;;;;;;2.20;1.40;;;;;;;24.47;40.60;98009.94;7615989;23;20212;-68